sensor_id;sensor_type;location;lat;lon;timestamp;pressure;altitude;pressure_sealevel;temperature;humidity
24666;BME280;29726;53.532;-1.478;2023-05-22T00:01:19;101342.34;;;20.45;70.75
24666;BME280;29726;53.532;-1.478;2023-05-22T00:04:03;101339.25;;;20.37;70.83
24666;BME280;29726;53.532;-1.478;2023-05-22T00:06:48;101351.34;;;20.38;70.71
24666;BME280;29726;53.532;-1.478;2023-05-22T00:09:32;101338.97;;;20.30;70.99
24666;BME280;29726;53.532;-1.478;2023-05-22T00:12:16;101319.09;;;20.08;70.50
24666;BME280;29726;53.532;-1.478;2023-05-22T00:15:00;101342.56;;;20.20;70.87
24666;BME280;29726;53.532;-1.478;2023-05-22T00:17:44;101339.22;;;20.16;70.73
24666;BME280;29726;53.532;-1.478;2023-05-22T00:20:28;101337.91;;;20.11;70.62
24666;BME280;29726;53.532;-1.478;2023-05-22T00:23:12;101325.50;;;19.98;70.68
24666;BME280;29726;53.532;-1.478;2023-05-22T00:25:57;101332.97;;;20.01;70.88
24666;BME280;29726;53.532;-1.478;2023-05-22T00:28:41;101324.72;;;19.92;71.12
24666;BME280;29726;53.532;-1.478;2023-05-22T00:31:25;101328.59;;;19.89;71.24
24666;BME280;29726;53.532;-1.478;2023-05-22T00:34:09;101326.22;;;19.82;71.45
24666;BME280;29726;53.532;-1.478;2023-05-22T00:36:53;101324.94;;;19.77;71.56
24666;BME280;29726;53.532;-1.478;2023-05-22T00:39:37;101337.56;;;19.76;71.54
24666;BME280;29726;53.532;-1.478;2023-05-22T00:42:21;101330.06;;;19.68;71.28
24666;BME280;29726;53.532;-1.478;2023-05-22T00:45:06;101332.91;;;19.68;71.58
24666;BME280;29726;53.532;-1.478;2023-05-22T00:47:52;101323.63;;;19.62;71.19
24666;BME280;29726;53.532;-1.478;2023-05-22T00:50:36;101318.69;;;19.57;71.30
24666;BME280;29726;53.532;-1.478;2023-05-22T00:53:23;101312.50;;;19.53;71.26
24666;BME280;29726;53.532;-1.478;2023-05-22T00:56:08;101309.13;;;19.49;71.90
24666;BME280;29726;53.532;-1.478;2023-05-22T00:58:52;101298.78;;;19.35;71.74
24666;BME280;29726;53.532;-1.478;2023-05-22T01:01:36;101304.97;;;19.33;72.08
24666;BME280;29726;53.532;-1.478;2023-05-22T01:04:24;101274.72;;;19.14;72.06
24666;BME280;29726;53.532;-1.478;2023-05-22T01:07:08;101290.00;;;19.27;71.88
24666;BME280;29726;53.532;-1.478;2023-05-22T01:09:52;101293.84;;;19.19;72.06
24666;BME280;29726;53.532;-1.478;2023-05-22T01:12:47;101303.63;;;19.23;72.07
24666;BME280;29726;53.532;-1.478;2023-05-22T01:16:04;101304.63;;;19.20;71.77
24666;BME280;29726;53.532;-1.478;2023-05-22T01:19:00;101303.03;;;19.14;71.63
24666;BME280;29726;53.532;-1.478;2023-05-22T01:31:05;101296.22;;;18.89;71.17
24666;BME280;29726;53.532;-1.478;2023-05-22T01:33:55;101278.41;;;18.78;71.49
24666;BME280;29726;53.532;-1.478;2023-05-22T01:36:40;101287.16;;;18.80;71.25
24666;BME280;29726;53.532;-1.478;2023-05-22T01:39:27;101288.94;;;18.77;71.74
24666;BME280;29726;53.532;-1.478;2023-05-22T01:42:11;101292.75;;;18.69;71.68
24666;BME280;29726;53.532;-1.478;2023-05-22T01:44:56;101296.06;;;18.67;72.21
24666;BME280;29726;53.532;-1.478;2023-05-22T01:47:40;101279.81;;;18.57;72.08
24666;BME280;29726;53.532;-1.478;2023-05-22T01:50:24;101287.47;;;18.51;72.45
24666;BME280;29726;53.532;-1.478;2023-05-22T01:56:13;101284.56;;;18.40;72.34
24666;BME280;29726;53.532;-1.478;2023-05-22T01:59:13;101299.53;;;18.46;72.76
24666;BME280;29726;53.532;-1.478;2023-05-22T02:02:05;101280.16;;;18.34;72.70
24666;BME280;29726;53.532;-1.478;2023-05-22T02:04:58;101291.22;;;18.37;72.98
24666;BME280;29726;53.532;-1.478;2023-05-22T02:07:43;101287.84;;;18.33;72.85
24666;BME280;29726;53.532;-1.478;2023-05-22T02:10:30;101279.31;;;18.28;73.02
24666;BME280;29726;53.532;-1.478;2023-05-22T02:13:14;101275.44;;;18.25;73.24
24666;BME280;29726;53.532;-1.478;2023-05-22T02:16:00;101269.66;;;18.14;73.43
24666;BME280;29726;53.532;-1.478;2023-05-22T02:18:46;101246.13;;;17.97;73.33
24666;BME280;29726;53.532;-1.478;2023-05-22T02:21:33;101274.28;;;18.12;73.29
24666;BME280;29726;53.532;-1.478;2023-05-22T02:24:17;101268.84;;;18.08;73.35
24666;BME280;29726;53.532;-1.478;2023-05-22T02:27:01;101274.22;;;18.06;73.33
24666;BME280;29726;53.532;-1.478;2023-05-22T02:29:45;101237.78;;;17.83;73.59
24666;BME280;29726;53.532;-1.478;2023-05-22T02:32:29;101264.38;;;17.96;73.47
24666;BME280;29726;53.532;-1.478;2023-05-22T02:35:14;101262.25;;;17.91;73.36
24666;BME280;29726;53.532;-1.478;2023-05-22T02:37:58;101276.94;;;17.95;73.72
24666;BME280;29726;53.532;-1.478;2023-05-22T02:40:42;101274.63;;;17.94;73.70
24666;BME280;29726;53.532;-1.478;2023-05-22T02:43:26;101274.56;;;17.88;73.54
24666;BME280;29726;53.532;-1.478;2023-05-22T02:46:10;101285.88;;;17.88;73.56
24666;BME280;29726;53.532;-1.478;2023-05-22T02:48:54;101280.94;;;17.83;73.55
24666;BME280;29726;53.532;-1.478;2023-05-22T02:51:38;101280.66;;;17.81;73.29
24666;BME280;29726;53.532;-1.478;2023-05-22T02:54:22;101276.50;;;17.77;73.69
24666;BME280;29726;53.532;-1.478;2023-05-22T02:57:05;101275.16;;;17.72;73.73
24666;BME280;29726;53.532;-1.478;2023-05-22T02:59:49;101276.44;;;17.71;73.69
24666;BME280;29726;53.532;-1.478;2023-05-22T03:02:35;101261.50;;;17.65;73.96
24666;BME280;29726;53.532;-1.478;2023-05-22T03:05:19;101263.22;;;17.57;74.16
24666;BME280;29726;53.532;-1.478;2023-05-22T03:08:04;101265.25;;;17.57;74.05
24666;BME280;29726;53.532;-1.478;2023-05-22T03:10:48;101262.94;;;17.55;74.12
24666;BME280;29726;53.532;-1.478;2023-05-22T03:13:33;101272.97;;;17.56;74.07
24666;BME280;29726;53.532;-1.478;2023-05-22T03:16:17;101265.97;;;17.52;74.08
24666;BME280;29726;53.532;-1.478;2023-05-22T03:19:10;101265.19;;;17.51;74.15
24666;BME280;29726;53.532;-1.478;2023-05-22T03:21:54;101264.34;;;17.45;74.29
24666;BME280;29726;53.532;-1.478;2023-05-22T03:24:39;101246.88;;;17.41;74.21
24666;BME280;29726;53.532;-1.478;2023-05-22T03:27:23;101255.34;;;17.41;74.02
24666;BME280;29726;53.532;-1.478;2023-05-22T03:30:07;101252.22;;;17.39;74.02
24666;BME280;29726;53.532;-1.478;2023-05-22T03:32:51;101228.44;;;17.26;74.06
24666;BME280;29726;53.532;-1.478;2023-05-22T03:35:36;101242.34;;;17.29;74.01
24666;BME280;29726;53.532;-1.478;2023-05-22T03:38:20;101240.78;;;17.28;74.06
24666;BME280;29726;53.532;-1.478;2023-05-22T03:41:04;101254.88;;;17.28;74.03
24666;BME280;29726;53.532;-1.478;2023-05-22T03:43:48;101246.13;;;17.26;73.94
24666;BME280;29726;53.532;-1.478;2023-05-22T03:46:31;101247.94;;;17.24;73.88
24666;BME280;29726;53.532;-1.478;2023-05-22T03:49:15;101246.59;;;17.19;74.04
24666;BME280;29726;53.532;-1.478;2023-05-22T03:51:59;101251.47;;;17.19;73.91
24666;BME280;29726;53.532;-1.478;2023-05-22T03:54:43;101217.81;;;16.95;73.86
24666;BME280;29726;53.532;-1.478;2023-05-22T03:57:27;101252.84;;;17.09;73.85
24666;BME280;29726;53.532;-1.478;2023-05-22T04:00:12;101248.22;;;17.06;73.95
24666;BME280;29726;53.532;-1.478;2023-05-22T04:02:56;101260.28;;;17.06;73.90
24666;BME280;29726;53.532;-1.478;2023-05-22T04:05:41;101255.41;;;17.07;74.01
24666;BME280;29726;53.532;-1.478;2023-05-22T04:08:25;101263.31;;;17.03;74.02
24666;BME280;29726;53.532;-1.478;2023-05-22T04:11:09;101249.41;;;16.99;74.09
24666;BME280;29726;53.532;-1.478;2023-05-22T04:13:53;101254.78;;;16.97;74.13
24666;BME280;29726;53.532;-1.478;2023-05-22T04:16:37;101255.75;;;16.94;74.10
24666;BME280;29726;53.532;-1.478;2023-05-22T04:19:21;101250.59;;;16.93;74.02
24666;BME280;29726;53.532;-1.478;2023-05-22T04:22:05;101259.00;;;16.87;73.72
24666;BME280;29726;53.532;-1.478;2023-05-22T04:24:49;101257.47;;;16.86;73.82
24666;BME280;29726;53.532;-1.478;2023-05-22T04:27:33;101259.19;;;16.84;73.90
24666;BME280;29726;53.532;-1.478;2023-05-22T04:30:18;101250.38;;;16.76;73.92
24666;BME280;29726;53.532;-1.478;2023-05-22T04:33:05;101253.00;;;16.80;74.16
24666;BME280;29726;53.532;-1.478;2023-05-22T04:35:50;101249.09;;;16.77;74.10
24666;BME280;29726;53.532;-1.478;2023-05-22T04:38:35;101242.81;;;16.68;73.92
24666;BME280;29726;53.532;-1.478;2023-05-22T04:41:20;101223.84;;;16.49;73.96
24666;BME280;29726;53.532;-1.478;2023-05-22T04:44:10;101220.25;;;16.48;74.17
24666;BME280;29726;53.532;-1.478;2023-05-22T04:46:54;101254.88;;;16.69;74.23
24666;BME280;29726;53.532;-1.478;2023-05-22T04:49:40;101254.31;;;16.65;74.17
24666;BME280;29726;53.532;-1.478;2023-05-22T04:52:25;101243.94;;;16.56;74.07
24666;BME280;29726;53.532;-1.478;2023-05-22T04:55:09;101246.56;;;16.60;73.84
24666;BME280;29726;53.532;-1.478;2023-05-22T04:57:54;101259.88;;;16.59;74.16
24666;BME280;29726;53.532;-1.478;2023-05-22T05:00:39;101248.72;;;16.50;74.07
24666;BME280;29726;53.532;-1.478;2023-05-22T05:03:23;101253.16;;;16.57;74.21
24666;BME280;29726;53.532;-1.478;2023-05-22T05:06:11;101255.41;;;16.53;74.24
24666;BME280;29726;53.532;-1.478;2023-05-22T05:08:59;101251.31;;;16.54;74.11
24666;BME280;29726;53.532;-1.478;2023-05-22T05:11:44;101246.88;;;16.47;74.13
24666;BME280;29726;53.532;-1.478;2023-05-22T05:14:29;101251.75;;;16.47;74.14
24666;BME280;29726;53.532;-1.478;2023-05-22T05:17:13;101246.00;;;16.41;73.89
24666;BME280;29726;53.532;-1.478;2023-05-22T05:19:57;101227.09;;;16.27;73.97
24666;BME280;29726;53.532;-1.478;2023-05-22T05:22:41;101228.81;;;16.25;73.91
24666;BME280;29726;53.532;-1.478;2023-05-22T05:25:26;101247.28;;;16.40;74.08
24666;BME280;29726;53.532;-1.478;2023-05-22T05:28:10;101264.00;;;16.44;73.95
24666;BME280;29726;53.532;-1.478;2023-05-22T05:30:55;101261.94;;;16.44;73.98
24666;BME280;29726;53.532;-1.478;2023-05-22T05:33:40;101234.47;;;16.25;73.75
24666;BME280;29726;53.532;-1.478;2023-05-22T05:36:24;101233.69;;;16.24;73.81
24666;BME280;29726;53.532;-1.478;2023-05-22T05:39:08;101248.25;;;16.37;73.59
24666;BME280;29726;53.532;-1.478;2023-05-22T05:41:52;101257.28;;;16.41;73.84
24666;BME280;29726;53.532;-1.478;2023-05-22T05:44:36;101217.47;;;16.19;74.07
24666;BME280;29726;53.532;-1.478;2023-05-22T05:47:20;101253.72;;;16.41;73.66
24666;BME280;29726;53.532;-1.478;2023-05-22T05:50:06;101254.47;;;16.41;73.65
24666;BME280;29726;53.532;-1.478;2023-05-22T05:52:51;101245.72;;;16.39;73.80
24666;BME280;29726;53.532;-1.478;2023-05-22T05:55:35;101253.50;;;16.44;73.68
24666;BME280;29726;53.532;-1.478;2023-05-22T05:58:18;101235.44;;;16.36;73.51
24666;BME280;29726;53.532;-1.478;2023-05-22T06:01:02;101246.81;;;16.42;73.55
24666;BME280;29726;53.532;-1.478;2023-05-22T06:03:47;101246.88;;;16.47;73.77
24666;BME280;29726;53.532;-1.478;2023-05-22T06:06:31;101253.28;;;16.48;73.56
24666;BME280;29726;53.532;-1.478;2023-05-22T06:09:19;101253.88;;;16.52;73.70
24666;BME280;29726;53.532;-1.478;2023-05-22T06:12:03;101242.31;;;16.50;73.78
24666;BME280;29726;53.532;-1.478;2023-05-22T06:14:47;101250.34;;;16.57;73.82
24666;BME280;29726;53.532;-1.478;2023-05-22T06:17:31;101243.66;;;16.54;73.92
24666;BME280;29726;53.532;-1.478;2023-05-22T06:20:15;101238.50;;;16.53;73.97
24666;BME280;29726;53.532;-1.478;2023-05-22T06:22:59;101246.75;;;16.56;73.92
24666;BME280;29726;53.532;-1.478;2023-05-22T06:25:44;101245.50;;;16.57;73.94
24666;BME280;29726;53.532;-1.478;2023-05-22T06:28:27;101259.47;;;16.66;74.13
24666;BME280;29726;53.532;-1.478;2023-05-22T06:31:11;101232.88;;;16.53;74.23
24666;BME280;29726;53.532;-1.478;2023-05-22T06:33:56;101261.09;;;16.73;74.40
24666;BME280;29726;53.532;-1.478;2023-05-22T06:36:40;101273.50;;;16.80;74.38
24666;BME280;29726;53.532;-1.478;2023-05-22T06:39:25;101268.16;;;16.82;74.59
24666;BME280;29726;53.532;-1.478;2023-05-22T06:42:09;101242.53;;;16.66;74.71
24666;BME280;29726;53.532;-1.478;2023-05-22T06:44:52;101275.69;;;16.91;75.17
24666;BME280;29726;53.532;-1.478;2023-05-22T06:47:37;101277.56;;;16.94;75.12
24666;BME280;29726;53.532;-1.478;2023-05-22T06:50:20;101278.69;;;17.02;75.12
24666;BME280;29726;53.532;-1.478;2023-05-22T06:53:05;101278.47;;;17.05;75.09
24666;BME280;29726;53.532;-1.478;2023-05-22T06:55:49;101282.91;;;17.12;75.49
24666;BME280;29726;53.532;-1.478;2023-05-22T06:58:33;101287.34;;;17.18;75.41
24666;BME280;29726;53.532;-1.478;2023-05-22T07:01:17;101288.19;;;17.24;75.52
24666;BME280;29726;53.532;-1.478;2023-05-22T07:04:02;101292.94;;;17.33;75.58
24666;BME280;29726;53.532;-1.478;2023-05-22T07:06:47;101283.22;;;17.34;75.19
24666;BME280;29726;53.532;-1.478;2023-05-22T07:09:32;101291.03;;;17.44;75.36
24666;BME280;29726;53.532;-1.478;2023-05-22T07:12:17;101290.59;;;17.51;75.07
24666;BME280;29726;53.532;-1.478;2023-05-22T07:15:03;101286.28;;;17.56;75.08
24666;BME280;29726;53.532;-1.478;2023-05-22T07:17:47;101293.34;;;17.66;75.10
24666;BME280;29726;53.532;-1.478;2023-05-22T07:20:32;101298.84;;;17.75;74.94
24666;BME280;29726;53.532;-1.478;2023-05-22T07:23:16;101297.91;;;17.83;74.95
24666;BME280;29726;53.532;-1.478;2023-05-22T07:26:00;101307.53;;;17.97;74.80
24666;BME280;29726;53.532;-1.478;2023-05-22T07:28:44;101304.97;;;17.99;74.54
24666;BME280;29726;53.532;-1.478;2023-05-22T07:31:29;101312.34;;;18.16;74.46
24666;BME280;29726;53.532;-1.478;2023-05-22T07:34:15;101311.13;;;18.23;74.43
24666;BME280;29726;53.532;-1.478;2023-05-22T07:37:05;101315.63;;;18.35;74.07
24666;BME280;29726;53.532;-1.478;2023-05-22T07:39:49;101305.88;;;18.36;74.33
24666;BME280;29726;53.532;-1.478;2023-05-22T07:42:33;101327.84;;;18.51;74.27
24666;BME280;29726;53.532;-1.478;2023-05-22T07:45:17;101305.19;;;18.51;74.22
24666;BME280;29726;53.532;-1.478;2023-05-22T07:48:01;101330.06;;;18.73;74.32
24666;BME280;29726;53.532;-1.478;2023-05-22T07:50:46;101333.75;;;18.84;74.60
24666;BME280;29726;53.532;-1.478;2023-05-22T07:53:31;101335.59;;;18.93;74.80
24666;BME280;29726;53.532;-1.478;2023-05-22T07:56:14;101344.16;;;19.04;74.65
24666;BME280;29726;53.532;-1.478;2023-05-22T07:59:00;101334.16;;;19.14;74.92
24666;BME280;29726;53.532;-1.478;2023-05-22T08:01:44;101310.72;;;19.08;75.35
24666;BME280;29726;53.532;-1.478;2023-05-22T08:04:28;101333.28;;;19.33;75.51
24666;BME280;29726;53.532;-1.478;2023-05-22T08:07:13;101346.75;;;19.49;75.47
24666;BME280;29726;53.532;-1.478;2023-05-22T08:09:57;101345.72;;;19.58;75.52
24666;BME280;29726;53.532;-1.478;2023-05-22T08:12:42;101350.16;;;19.70;75.99
24666;BME280;29726;53.532;-1.478;2023-05-22T08:15:26;101321.53;;;19.62;76.17
24666;BME280;29726;53.532;-1.478;2023-05-22T08:18:10;101331.63;;;19.80;76.12
24666;BME280;29726;53.532;-1.478;2023-05-22T08:20:54;101346.13;;;19.98;76.00
24666;BME280;29726;53.532;-1.478;2023-05-22T08:23:38;101342.28;;;20.07;76.42
24666;BME280;29726;53.532;-1.478;2023-05-22T08:26:23;101321.94;;;20.08;76.22
24666;BME280;29726;53.532;-1.478;2023-05-22T08:29:06;101331.50;;;20.27;76.22
24666;BME280;29726;53.532;-1.478;2023-05-22T08:31:50;101329.44;;;20.33;76.80
24666;BME280;29726;53.532;-1.478;2023-05-22T08:34:36;101332.81;;;20.48;76.67
24666;BME280;29726;53.532;-1.478;2023-05-22T08:37:20;101350.59;;;20.59;77.15
24666;BME280;29726;53.532;-1.478;2023-05-22T08:40:05;101338.72;;;20.72;78.08
24666;BME280;29726;53.532;-1.478;2023-05-22T08:42:49;101339.50;;;20.89;77.30
24666;BME280;29726;53.532;-1.478;2023-05-22T08:45:37;101331.47;;;20.98;76.99
24666;BME280;29726;53.532;-1.478;2023-05-22T08:48:29;101342.03;;;21.09;77.15
24666;BME280;29726;53.532;-1.478;2023-05-22T08:51:18;101338.13;;;21.17;77.57
24666;BME280;29726;53.532;-1.478;2023-05-22T08:54:04;101328.56;;;21.20;77.75
24666;BME280;29726;53.532;-1.478;2023-05-22T08:56:49;101343.00;;;21.33;78.04
24666;BME280;29726;53.532;-1.478;2023-05-22T08:59:37;101344.50;;;21.45;78.20
24666;BME280;29726;53.532;-1.478;2023-05-22T09:02:22;101330.81;;;21.49;78.47
24666;BME280;29726;53.532;-1.478;2023-05-22T09:05:07;101333.09;;;21.62;78.65
24666;BME280;29726;53.532;-1.478;2023-05-22T09:07:55;101329.91;;;21.76;78.85
24666;BME280;29726;53.532;-1.478;2023-05-22T09:10:40;101338.13;;;21.85;79.12
24666;BME280;29726;53.532;-1.478;2023-05-22T09:13:28;101328.75;;;21.96;79.33
24666;BME280;29726;53.532;-1.478;2023-05-22T09:16:13;101334.16;;;22.04;79.54
24666;BME280;29726;53.532;-1.478;2023-05-22T09:18:58;101340.81;;;22.12;79.46
24666;BME280;29726;53.532;-1.478;2023-05-22T09:21:42;101337.63;;;22.21;79.50
24666;BME280;29726;53.532;-1.478;2023-05-22T09:24:30;101341.75;;;22.26;79.58
24666;BME280;29726;53.532;-1.478;2023-05-22T09:27:21;101336.25;;;22.33;79.49
24666;BME280;29726;53.532;-1.478;2023-05-22T09:30:07;101339.63;;;22.37;79.40
24666;BME280;29726;53.532;-1.478;2023-05-22T09:32:51;101342.94;;;22.41;79.46
24666;BME280;29726;53.532;-1.478;2023-05-22T09:35:36;101340.34;;;22.43;79.51
24666;BME280;29726;53.532;-1.478;2023-05-22T09:38:25;101338.47;;;22.51;79.45
24666;BME280;29726;53.532;-1.478;2023-05-22T09:41:09;101346.72;;;22.55;79.32
24666;BME280;29726;53.532;-1.478;2023-05-22T09:43:54;101340.75;;;22.58;79.47
24666;BME280;29726;53.532;-1.478;2023-05-22T09:46:45;101342.75;;;22.63;79.78
24666;BME280;29726;53.532;-1.478;2023-05-22T09:49:29;101336.00;;;22.66;79.54
24666;BME280;29726;53.532;-1.478;2023-05-22T09:52:16;101332.63;;;22.68;79.56
24666;BME280;29726;53.532;-1.478;2023-05-22T09:55:05;101308.88;;;22.60;79.63
24666;BME280;29726;53.532;-1.478;2023-05-22T09:57:51;101330.97;;;22.78;79.91
24666;BME280;29726;53.532;-1.478;2023-05-22T10:00:37;101328.09;;;22.83;79.77
24666;BME280;29726;53.532;-1.478;2023-05-22T10:03:22;101334.25;;;22.87;79.77
24666;BME280;29726;53.532;-1.478;2023-05-22T10:06:09;101319.72;;;22.91;79.66
24666;BME280;29726;53.532;-1.478;2023-05-22T10:08:59;101327.44;;;22.96;79.77
24666;BME280;29726;53.532;-1.478;2023-05-22T10:11:45;101328.47;;;22.98;79.75
24666;BME280;29726;53.532;-1.478;2023-05-22T10:14:30;101327.31;;;23.07;79.97
24666;BME280;29726;53.532;-1.478;2023-05-22T10:17:15;101323.69;;;23.12;80.10
24666;BME280;29726;53.532;-1.478;2023-05-22T10:20:01;101316.06;;;23.20;80.10
24666;BME280;29726;53.532;-1.478;2023-05-22T10:22:47;101316.25;;;23.27;80.31
24666;BME280;29726;53.532;-1.478;2023-05-22T10:25:36;101335.97;;;23.44;80.62
24666;BME280;29726;53.532;-1.478;2023-05-22T10:28:26;101341.31;;;23.53;80.45
24666;BME280;29726;53.532;-1.478;2023-05-22T10:31:19;101338.31;;;23.64;81.02
24666;BME280;29726;53.532;-1.478;2023-05-22T10:34:11;101334.00;;;23.75;81.20
24666;BME280;29726;53.532;-1.478;2023-05-22T10:40:13;101308.16;;;23.92;81.73
24666;BME280;29726;53.532;-1.478;2023-05-22T10:42:59;101312.59;;;24.06;81.50
24666;BME280;29726;53.532;-1.478;2023-05-22T10:45:45;101309.09;;;24.13;81.79
24666;BME280;29726;53.532;-1.478;2023-05-22T10:48:39;101314.56;;;24.29;81.72
24666;BME280;29726;53.532;-1.478;2023-05-22T10:51:23;101298.88;;;24.36;82.11
24666;BME280;29726;53.532;-1.478;2023-05-22T10:54:08;101301.09;;;24.43;82.09
24666;BME280;29726;53.532;-1.478;2023-05-22T10:57:08;101297.75;;;24.57;82.17
24666;BME280;29726;53.532;-1.478;2023-05-22T11:00:08;101296.00;;;24.67;82.57
24666;BME280;29726;53.532;-1.478;2023-05-22T11:03:02;101292.75;;;24.76;82.80
24666;BME280;29726;53.532;-1.478;2023-05-22T11:05:51;101304.16;;;24.89;82.69
24666;BME280;29726;53.532;-1.478;2023-05-22T11:08:37;101298.59;;;24.97;83.27
24666;BME280;29726;53.532;-1.478;2023-05-22T11:11:24;101297.06;;;25.09;83.31
24666;BME280;29726;53.532;-1.478;2023-05-22T11:14:14;101289.88;;;25.15;83.42
24666;BME280;29726;53.532;-1.478;2023-05-22T11:16:59;101293.53;;;25.29;83.13
24666;BME280;29726;53.532;-1.478;2023-05-22T11:19:48;101289.03;;;25.33;83.80
24666;BME280;29726;53.532;-1.478;2023-05-22T11:22:48;101285.75;;;25.42;83.80
24666;BME280;29726;53.532;-1.478;2023-05-22T11:25:34;101301.75;;;25.58;83.52
24666;BME280;29726;53.532;-1.478;2023-05-22T11:28:19;101295.59;;;25.67;83.68
24666;BME280;29726;53.532;-1.478;2023-05-22T11:31:03;101296.22;;;25.73;84.25
24666;BME280;29726;53.532;-1.478;2023-05-22T11:33:47;101284.22;;;25.74;83.86
24666;BME280;29726;53.532;-1.478;2023-05-22T11:36:31;101284.22;;;25.87;84.30
24666;BME280;29726;53.532;-1.478;2023-05-22T11:39:16;101268.47;;;25.81;84.10
24666;BME280;29726;53.532;-1.478;2023-05-22T11:42:00;101282.28;;;26.03;84.59
24666;BME280;29726;53.532;-1.478;2023-05-22T11:44:47;101280.69;;;26.15;84.76
24666;BME280;29726;53.532;-1.478;2023-05-22T11:47:31;101258.25;;;26.06;84.62
24666;BME280;29726;53.532;-1.478;2023-05-22T11:50:16;101269.16;;;26.28;84.62
24666;BME280;29726;53.532;-1.478;2023-05-22T11:52:59;101282.44;;;26.38;85.02
24666;BME280;29726;53.532;-1.478;2023-05-22T11:55:47;101285.91;;;26.44;84.83
24666;BME280;29726;53.532;-1.478;2023-05-22T11:58:32;101281.84;;;26.53;84.67
24666;BME280;29726;53.532;-1.478;2023-05-22T12:01:16;101288.63;;;26.63;85.20
24666;BME280;29726;53.532;-1.478;2023-05-22T12:04:01;101280.78;;;26.63;85.27
24666;BME280;29726;53.532;-1.478;2023-05-22T12:06:45;101275.72;;;26.77;85.12
24666;BME280;29726;53.532;-1.478;2023-05-22T12:09:29;101266.22;;;26.82;85.42
24666;BME280;29726;53.532;-1.478;2023-05-22T12:12:16;101263.38;;;26.89;85.47
24666;BME280;29726;53.532;-1.478;2023-05-22T12:15:04;101246.56;;;26.86;85.68
24666;BME280;29726;53.532;-1.478;2023-05-22T12:17:48;101270.97;;;27.07;85.80
24666;BME280;29726;53.532;-1.478;2023-05-22T12:20:32;101263.00;;;27.13;85.86
24666;BME280;29726;53.532;-1.478;2023-05-22T12:23:21;101268.97;;;27.23;85.50
24666;BME280;29726;53.532;-1.478;2023-05-22T12:26:09;101260.00;;;27.26;85.62
24666;BME280;29726;53.532;-1.478;2023-05-22T12:28:53;101259.28;;;27.33;85.73
24666;BME280;29726;53.532;-1.478;2023-05-22T12:31:38;101254.50;;;27.36;85.64
24666;BME280;29726;53.532;-1.478;2023-05-22T12:34:22;101249.56;;;27.43;85.63
24666;BME280;29726;53.532;-1.478;2023-05-22T12:37:17;101254.59;;;27.50;85.78
24666;BME280;29726;53.532;-1.478;2023-05-22T12:40:03;101250.19;;;27.57;85.69
24666;BME280;29726;53.532;-1.478;2023-05-22T12:42:47;101257.50;;;27.65;85.75
24666;BME280;29726;53.532;-1.478;2023-05-22T12:45:32;101250.63;;;27.68;85.46
24666;BME280;29726;53.532;-1.478;2023-05-22T12:48:16;101256.41;;;27.76;85.55
24666;BME280;29726;53.532;-1.478;2023-05-22T12:51:00;101248.97;;;27.80;85.54
24666;BME280;29726;53.532;-1.478;2023-05-22T12:53:44;101252.22;;;27.84;85.60
24666;BME280;29726;53.532;-1.478;2023-05-22T12:56:29;101260.28;;;27.93;85.61
24666;BME280;29726;53.532;-1.478;2023-05-22T12:59:13;101253.63;;;27.98;85.49
24666;BME280;29726;53.532;-1.478;2023-05-22T13:01:57;101252.84;;;28.05;85.40
24666;BME280;29726;53.532;-1.478;2023-05-22T13:04:44;101252.25;;;28.07;85.39
24666;BME280;29726;53.532;-1.478;2023-05-22T13:07:28;101251.72;;;28.16;85.17
24666;BME280;29726;53.532;-1.478;2023-05-22T13:10:12;101244.25;;;28.20;85.21
24666;BME280;29726;53.532;-1.478;2023-05-22T13:12:56;101249.81;;;28.26;85.19
24666;BME280;29726;53.532;-1.478;2023-05-22T13:15:40;101240.25;;;28.23;84.98
24666;BME280;29726;53.532;-1.478;2023-05-22T13:18:24;101236.41;;;28.28;85.17
24666;BME280;29726;53.532;-1.478;2023-05-22T13:21:08;101240.66;;;28.35;82.26
24666;BME280;29726;53.532;-1.478;2023-05-22T13:23:52;101241.78;;;28.39;83.98
24666;BME280;29726;53.532;-1.478;2023-05-22T13:26:36;101237.00;;;28.42;83.89
24666;BME280;29726;53.532;-1.478;2023-05-22T13:29:20;101242.56;;;28.47;83.91
24666;BME280;29726;53.532;-1.478;2023-05-22T13:32:04;101228.03;;;28.45;83.71
24666;BME280;29726;53.532;-1.478;2023-05-22T13:34:48;101235.28;;;28.54;83.89
24666;BME280;29726;53.532;-1.478;2023-05-22T13:37:32;101234.53;;;28.53;83.77
24666;BME280;29726;53.532;-1.478;2023-05-22T13:40:16;101226.28;;;28.57;83.55
24666;BME280;29726;53.532;-1.478;2023-05-22T13:43:00;101233.75;;;28.60;82.29
24666;BME280;29726;53.532;-1.478;2023-05-22T13:45:44;101251.94;;;28.70;81.95
24666;BME280;29726;53.532;-1.478;2023-05-22T13:48:28;101245.59;;;28.72;81.21
24666;BME280;29726;53.532;-1.478;2023-05-22T13:51:13;101247.50;;;28.77;81.27
24666;BME280;29726;53.532;-1.478;2023-05-22T13:53:57;101245.78;;;28.81;78.44
24666;BME280;29726;53.532;-1.478;2023-05-22T13:56:40;101244.44;;;28.82;77.84
24666;BME280;29726;53.532;-1.478;2023-05-22T13:59:24;101247.31;;;28.82;78.81
24666;BME280;29726;53.532;-1.478;2023-05-22T14:02:09;101230.44;;;28.86;77.68
24666;BME280;29726;53.532;-1.478;2023-05-22T14:04:54;101232.97;;;28.90;76.91
24666;BME280;29726;53.532;-1.478;2023-05-22T14:07:38;101243.50;;;28.95;76.60
24666;BME280;29726;53.532;-1.478;2023-05-22T14:10:22;101236.75;;;29.00;75.93
24666;BME280;29726;53.532;-1.478;2023-05-22T14:13:05;101224.50;;;28.99;74.95
24666;BME280;29726;53.532;-1.478;2023-05-22T14:15:51;101219.72;;;29.02;74.25
24666;BME280;29726;53.532;-1.478;2023-05-22T14:18:35;101229.28;;;29.04;74.51
24666;BME280;29726;53.532;-1.478;2023-05-22T14:21:19;101230.59;;;29.11;75.26
24666;BME280;29726;53.532;-1.478;2023-05-22T14:24:03;101225.22;;;29.15;74.48
24666;BME280;29726;53.532;-1.478;2023-05-22T14:26:47;101222.34;;;29.15;74.32
24666;BME280;29726;53.532;-1.478;2023-05-22T14:29:31;101225.59;;;29.18;73.57